sensor_id;sensor_type;location;lat;lon;timestamp;temperature;humidity
22192;DHT22;11261;52.456;10.850;2022-12-22T00:01:40;7.50;99.90
22192;DHT22;11261;52.456;10.850;2022-12-22T00:04:26;7.50;99.90
22192;DHT22;11261;52.456;10.850;2022-12-22T00:07:12;7.50;99.90
22192;DHT22;11261;52.456;10.850;2022-12-22T00:09:57;7.60;99.90
22192;DHT22;11261;52.456;10.850;2022-12-22T00:12:43;7.60;99.90
22192;DHT22;11261;52.456;10.850;2022-12-22T00:15:32;7.60;99.90
22192;DHT22;11261;52.456;10.850;2022-12-22T00:18:19;7.50;99.90
22192;DHT22;11261;52.456;10.850;2022-12-22T00:21:05;7.60;99.90
22192;DHT22;11261;52.456;10.850;2022-12-22T00:23:51;7.60;99.90
22192;DHT22;11261;52.456;10.850;2022-12-22T00:26:36;7.60;99.90
22192;DHT22;11261;52.456;10.850;2022-12-22T00:29:22;7.60;99.90
22192;DHT22;11261;52.456;10.850;2022-12-22T00:32:11;7.60;99.90
22192;DHT22;11261;52.456;10.850;2022-12-22T00:35:00;7.60;99.90
22192;DHT22;11261;52.456;10.850;2022-12-22T00:37:46;7.60;99.90
22192;DHT22;11261;52.456;10.850;2022-12-22T00:40:32;7.50;99.90
22192;DHT22;11261;52.456;10.850;2022-12-22T00:43:18;7.60;99.90
22192;DHT22;11261;52.456;10.850;2022-12-22T00:46:03;7.60;99.90
22192;DHT22;11261;52.456;10.850;2022-12-22T00:48:49;7.70;99.90
22192;DHT22;11261;52.456;10.850;2022-12-22T00:51:37;7.80;99.90
22192;DHT22;11261;52.456;10.850;2022-12-22T00:54:22;7.70;99.90
22192;DHT22;11261;52.456;10.850;2022-12-22T00:57:10;7.70;99.90
22192;DHT22;11261;52.456;10.850;2022-12-22T00:59:59;7.70;99.90
22192;DHT22;11261;52.456;10.850;2022-12-22T01:02:45;7.70;99.90
22192;DHT22;11261;52.456;10.850;2022-12-22T01:05:31;7.70;99.90
22192;DHT22;11261;52.456;10.850;2022-12-22T01:08:18;7.70;99.90
22192;DHT22;11261;52.456;10.850;2022-12-22T01:11:05;7.60;99.90
22192;DHT22;11261;52.456;10.850;2022-12-22T01:13:51;7.70;99.90
22192;DHT22;11261;52.456;10.850;2022-12-22T01:16:38;7.70;99.90
22192;DHT22;11261;52.456;10.850;2022-12-22T01:19:23;7.80;99.90
22192;DHT22;11261;52.456;10.850;2022-12-22T01:22:10;7.80;99.90
22192;DHT22;11261;52.456;10.850;2022-12-22T01:24:58;7.70;99.90
22192;DHT22;11261;52.456;10.850;2022-12-22T01:27:43;7.80;99.90
22192;DHT22;11261;52.456;10.850;2022-12-22T01:30:29;7.80;99.90
22192;DHT22;11261;52.456;10.850;2022-12-22T01:33:15;7.80;99.90
22192;DHT22;11261;52.456;10.850;2022-12-22T01:36:01;7.80;99.90
22192;DHT22;11261;52.456;10.850;2022-12-22T01:38:47;7.80;99.90
22192;DHT22;11261;52.456;10.850;2022-12-22T01:41:34;7.80;99.90
22192;DHT22;11261;52.456;10.850;2022-12-22T01:44:20;7.80;99.90
22192;DHT22;11261;52.456;10.850;2022-12-22T01:47:31;7.80;99.90
22192;DHT22;11261;52.456;10.850;2022-12-22T01:50:21;7.90;99.90
22192;DHT22;11261;52.456;10.850;2022-12-22T01:53:13;7.90;99.90
22192;DHT22;11261;52.456;10.850;2022-12-22T01:56:00;8.00;99.90
22192;DHT22;11261;52.456;10.850;2022-12-22T01:58:50;8.00;99.90
22192;DHT22;11261;52.456;10.850;2022-12-22T02:01:37;8.00;99.90
22192;DHT22;11261;52.456;10.850;2022-12-22T02:04:26;8.00;99.90
22192;DHT22;11261;52.456;10.850;2022-12-22T02:10:49;8.10;99.90
22192;DHT22;11261;52.456;10.850;2022-12-22T02:13:44;8.10;99.90
22192;DHT22;11261;52.456;10.850;2022-12-22T02:16:39;8.10;99.90
22192;DHT22;11261;52.456;10.850;2022-12-22T02:19:47;8.00;99.90
22192;DHT22;11261;52.456;10.850;2022-12-22T02:22:42;8.00;99.90
22192;DHT22;11261;52.456;10.850;2022-12-22T02:25:36;8.00;99.90
22192;DHT22;11261;52.456;10.850;2022-12-22T02:28:27;7.90;99.90
22192;DHT22;11261;52.456;10.850;2022-12-22T02:31:15;8.00;99.90
22192;DHT22;11261;52.456;10.850;2022-12-22T02:34:01;7.90;99.90
22192;DHT22;11261;52.456;10.850;2022-12-22T02:36:56;7.90;99.90
22192;DHT22;11261;52.456;10.850;2022-12-22T02:39:50;7.90;99.90
22192;DHT22;11261;52.456;10.850;2022-12-22T02:42:48;7.90;99.90
22192;DHT22;11261;52.456;10.850;2022-12-22T02:45:45;7.80;99.90
22192;DHT22;11261;52.456;10.850;2022-12-22T02:48:39;7.80;99.90
22192;DHT22;11261;52.456;10.850;2022-12-22T02:51:27;8.00;99.90
22192;DHT22;11261;52.456;10.850;2022-12-22T02:54:15;7.90;99.90
22192;DHT22;11261;52.456;10.850;2022-12-22T02:57:02;7.90;99.90
22192;DHT22;11261;52.456;10.850;2022-12-22T02:59:48;7.90;99.90
22192;DHT22;11261;52.456;10.850;2022-12-22T03:02:35;8.00;99.90
22192;DHT22;11261;52.456;10.850;2022-12-22T03:05:21;8.00;99.90
22192;DHT22;11261;52.456;10.850;2022-12-22T03:08:06;8.10;99.90
22192;DHT22;11261;52.456;10.850;2022-12-22T03:10:52;8.10;99.90
22192;DHT22;11261;52.456;10.850;2022-12-22T03:13:38;8.00;99.90
22192;DHT22;11261;52.456;10.850;2022-12-22T03:16:23;8.10;99.90
22192;DHT22;11261;52.456;10.850;2022-12-22T03:19:10;8.10;99.90
22192;DHT22;11261;52.456;10.850;2022-12-22T03:21:56;8.00;99.90
22192;DHT22;11261;52.456;10.850;2022-12-22T03:24:41;8.00;99.90
22192;DHT22;11261;52.456;10.850;2022-12-22T03:27:27;8.00;99.90
22192;DHT22;11261;52.456;10.850;2022-12-22T03:29:55;8.00;99.90
22192;DHT22;11261;52.456;10.850;2022-12-22T03:32:24;7.90;99.90
22192;DHT22;11261;52.456;10.850;2022-12-22T03:34:54;8.00;99.90
22192;DHT22;11261;52.456;10.850;2022-12-22T03:37:22;8.00;99.90
22192;DHT22;11261;52.456;10.850;2022-12-22T03:39:50;7.90;99.90
22192;DHT22;11261;52.456;10.850;2022-12-22T03:42:18;8.00;99.90
22192;DHT22;11261;52.456;10.850;2022-12-22T03:45:04;8.00;99.90
22192;DHT22;11261;52.456;10.850;2022-12-22T03:47:50;8.10;99.90
22192;DHT22;11261;52.456;10.850;2022-12-22T03:50:20;8.10;99.90
22192;DHT22;11261;52.456;10.850;2022-12-22T03:52:48;8.10;99.90
22192;DHT22;11261;52.456;10.850;2022-12-22T03:55:16;8.10;99.90
22192;DHT22;11261;52.456;10.850;2022-12-22T03:57:44;8.10;99.90
22192;DHT22;11261;52.456;10.850;2022-12-22T04:00:13;8.10;99.90
22192;DHT22;11261;52.456;10.850;2022-12-22T04:02:42;8.20;99.90
22192;DHT22;11261;52.456;10.850;2022-12-22T04:05:11;8.20;99.90
22192;DHT22;11261;52.456;10.850;2022-12-22T04:07:41;8.20;99.90
22192;DHT22;11261;52.456;10.850;2022-12-22T04:10:10;8.20;99.90
22192;DHT22;11261;52.456;10.850;2022-12-22T04:12:56;8.10;99.90
22192;DHT22;11261;52.456;10.850;2022-12-22T04:15:26;8.30;99.90
22192;DHT22;11261;52.456;10.850;2022-12-22T04:17:54;8.30;99.90
22192;DHT22;11261;52.456;10.850;2022-12-22T04:20:24;8.20;99.90
22192;DHT22;11261;52.456;10.850;2022-12-22T04:22:55;8.20;99.90
22192;DHT22;11261;52.456;10.850;2022-12-22T04:25:24;8.20;99.90
22192;DHT22;11261;52.456;10.850;2022-12-22T04:27:53;8.10;99.90
22192;DHT22;11261;52.456;10.850;2022-12-22T04:30:21;8.10;99.90
22192;DHT22;11261;52.456;10.850;2022-12-22T04:32:49;8.10;99.90
22192;DHT22;11261;52.456;10.850;2022-12-22T04:35:18;8.20;99.90
22192;DHT22;11261;52.456;10.850;2022-12-22T04:37:46;8.20;99.90
22192;DHT22;11261;52.456;10.850;2022-12-22T04:40:15;8.10;99.90
22192;DHT22;11261;52.456;10.850;2022-12-22T04:42:44;8.10;99.90
22192;DHT22;11261;52.456;10.850;2022-12-22T04:45:12;8.10;99.90
22192;DHT22;11261;52.456;10.850;2022-12-22T04:47:40;8.10;99.90
22192;DHT22;11261;52.456;10.850;2022-12-22T04:50:09;8.10;99.90
22192;DHT22;11261;52.456;10.850;2022-12-22T04:52:37;8.20;99.90
22192;DHT22;11261;52.456;10.850;2022-12-22T04:55:06;8.20;99.90
22192;DHT22;11261;52.456;10.850;2022-12-22T04:57:36;8.20;99.90
22192;DHT22;11261;52.456;10.850;2022-12-22T05:00:08;8.20;99.90
22192;DHT22;11261;52.456;10.850;2022-12-22T05:02:37;8.20;99.90
22192;DHT22;11261;52.456;10.850;2022-12-22T05:05:06;8.20;99.90
22192;DHT22;11261;52.456;10.850;2022-12-22T05:07:35;8.20;99.90
22192;DHT22;11261;52.456;10.850;2022-12-22T05:10:04;8.10;99.90
22192;DHT22;11261;52.456;10.850;2022-12-22T05:12:32;8.00;99.90
22192;DHT22;11261;52.456;10.850;2022-12-22T05:15:19;8.00;99.90
22192;DHT22;11261;52.456;10.850;2022-12-22T05:17:48;8.00;99.90
22192;DHT22;11261;52.456;10.850;2022-12-22T05:20:17;8.00;99.90
22192;DHT22;11261;52.456;10.850;2022-12-22T05:22:45;8.00;99.90
22192;DHT22;11261;52.456;10.850;2022-12-22T05:25:14;8.00;99.90
22192;DHT22;11261;52.456;10.850;2022-12-22T05:27:43;8.00;99.90
22192;DHT22;11261;52.456;10.850;2022-12-22T05:30:12;8.00;99.90
22192;DHT22;11261;52.456;10.850;2022-12-22T05:32:43;8.00;99.90
22192;DHT22;11261;52.456;10.850;2022-12-22T05:38:44;8.00;99.90
22192;DHT22;11261;52.456;10.850;2022-12-22T05:41:12;8.00;99.90
22192;DHT22;11261;52.456;10.850;2022-12-22T05:43:42;8.00;99.90
22192;DHT22;11261;52.456;10.850;2022-12-22T05:46:10;8.00;99.90
22192;DHT22;11261;52.456;10.850;2022-12-22T05:48:40;8.00;99.90
22192;DHT22;11261;52.456;10.850;2022-12-22T05:51:09;8.00;99.90
22192;DHT22;11261;52.456;10.850;2022-12-22T05:53:37;8.00;99.90
22192;DHT22;11261;52.456;10.850;2022-12-22T05:56:07;8.00;99.90
22192;DHT22;11261;52.456;10.850;2022-12-22T05:58:37;8.00;99.90
22192;DHT22;11261;52.456;10.850;2022-12-22T06:01:06;8.00;99.90
22192;DHT22;11261;52.456;10.850;2022-12-22T06:03:34;7.90;99.90
22192;DHT22;11261;52.456;10.850;2022-12-22T06:06:04;7.80;99.90
22192;DHT22;11261;52.456;10.850;2022-12-22T06:08:33;7.90;99.90
22192;DHT22;11261;52.456;10.850;2022-12-22T06:11:01;8.00;99.90
22192;DHT22;11261;52.456;10.850;2022-12-22T06:13:29;8.00;99.90
22192;DHT22;11261;52.456;10.850;2022-12-22T06:15:57;8.00;99.90
22192;DHT22;11261;52.456;10.850;2022-12-22T06:18:25;7.90;99.90
22192;DHT22;11261;52.456;10.850;2022-12-22T06:20:54;7.90;99.90
22192;DHT22;11261;52.456;10.850;2022-12-22T06:23:23;7.90;99.90
22192;DHT22;11261;52.456;10.850;2022-12-22T06:25:55;7.90;99.90
22192;DHT22;11261;52.456;10.850;2022-12-22T06:28:24;7.80;99.90
22192;DHT22;11261;52.456;10.850;2022-12-22T06:30:53;7.90;99.90
22192;DHT22;11261;52.456;10.850;2022-12-22T06:33:21;7.80;99.90
22192;DHT22;11261;52.456;10.850;2022-12-22T06:35:49;7.80;99.90
22192;DHT22;11261;52.456;10.850;2022-12-22T06:38:26;7.80;99.90
22192;DHT22;11261;52.456;10.850;2022-12-22T06:40:55;7.80;99.90
22192;DHT22;11261;52.456;10.850;2022-12-22T06:43:24;7.80;99.90
22192;DHT22;11261;52.456;10.850;2022-12-22T06:45:51;7.90;99.90
22192;DHT22;11261;52.456;10.850;2022-12-22T06:48:20;7.90;99.90
22192;DHT22;11261;52.456;10.850;2022-12-22T06:50:48;7.90;99.90
22192;DHT22;11261;52.456;10.850;2022-12-22T06:53:17;7.90;99.90
22192;DHT22;11261;52.456;10.850;2022-12-22T06:55:47;7.90;99.90
22192;DHT22;11261;52.456;10.850;2022-12-22T06:58:15;7.80;99.90
22192;DHT22;11261;52.456;10.850;2022-12-22T07:00:43;7.90;99.90
22192;DHT22;11261;52.456;10.850;2022-12-22T07:03:14;7.90;99.90
22192;DHT22;11261;52.456;10.850;2022-12-22T07:05:43;7.80;99.90
22192;DHT22;11261;52.456;10.850;2022-12-22T07:08:11;7.80;99.90
22192;DHT22;11261;52.456;10.850;2022-12-22T07:10:39;7.80;99.90
22192;DHT22;11261;52.456;10.850;2022-12-22T07:13:29;7.70;99.90
22192;DHT22;11261;52.456;10.850;2022-12-22T07:15:58;7.70;99.90
22192;DHT22;11261;52.456;10.850;2022-12-22T07:18:29;7.60;99.90
22192;DHT22;11261;52.456;10.850;2022-12-22T07:20:59;7.70;99.90
22192;DHT22;11261;52.456;10.850;2022-12-22T07:23:28;7.80;99.90
22192;DHT22;11261;52.456;10.850;2022-12-22T07:25:57;7.80;99.90
22192;DHT22;11261;52.456;10.850;2022-12-22T07:28:26;7.80;99.90
22192;DHT22;11261;52.456;10.850;2022-12-22T07:30:55;7.80;99.90
22192;DHT22;11261;52.456;10.850;2022-12-22T07:33:23;7.80;99.90
22192;DHT22;11261;52.456;10.850;2022-12-22T07:36:00;7.90;99.90
22192;DHT22;11261;52.456;10.850;2022-12-22T07:38:31;7.90;99.90
22192;DHT22;11261;52.456;10.850;2022-12-22T07:41:00;7.90;99.90
22192;DHT22;11261;52.456;10.850;2022-12-22T07:43:32;7.90;99.90
22192;DHT22;11261;52.456;10.850;2022-12-22T07:46:00;7.90;99.90
22192;DHT22;11261;52.456;10.850;2022-12-22T07:48:28;7.90;99.90
22192;DHT22;11261;52.456;10.850;2022-12-22T07:51:13;9.60;99.90
22192;DHT22;11261;52.456;10.850;2022-12-22T07:53:41;12.90;99.90
22192;DHT22;11261;52.456;10.850;2022-12-22T07:56:10;12.80;99.90
22192;DHT22;11261;52.456;10.850;2022-12-22T07:58:39;12.20;99.90
22192;DHT22;11261;52.456;10.850;2022-12-22T08:01:07;12.30;99.90
22192;DHT22;11261;52.456;10.850;2022-12-22T08:03:36;11.50;99.90
22192;DHT22;11261;52.456;10.850;2022-12-22T08:06:05;10.20;99.90
22192;DHT22;11261;52.456;10.850;2022-12-22T08:08:33;9.50;99.90
22192;DHT22;11261;52.456;10.850;2022-12-22T08:11:02;9.10;99.90
22192;DHT22;11261;52.456;10.850;2022-12-22T08:13:30;8.80;99.90
22192;DHT22;11261;52.456;10.850;2022-12-22T08:16:03;8.70;99.90
22192;DHT22;11261;52.456;10.850;2022-12-22T08:18:31;8.60;99.90
22192;DHT22;11261;52.456;10.850;2022-12-22T08:21:00;8.60;99.90
22192;DHT22;11261;52.456;10.850;2022-12-22T08:23:29;8.60;99.90
22192;DHT22;11261;52.456;10.850;2022-12-22T08:26:00;8.50;99.90
22192;DHT22;11261;52.456;10.850;2022-12-22T08:28:32;8.60;99.90
22192;DHT22;11261;52.456;10.850;2022-12-22T08:31:03;8.50;99.90
22192;DHT22;11261;52.456;10.850;2022-12-22T08:33:31;8.50;99.90
22192;DHT22;11261;52.456;10.850;2022-12-22T08:36:00;8.50;99.90
22192;DHT22;11261;52.456;10.850;2022-12-22T08:38:34;8.60;99.90
22192;DHT22;11261;52.456;10.850;2022-12-22T08:41:03;8.60;99.90
22192;DHT22;11261;52.456;10.850;2022-12-22T08:43:33;8.60;99.90
22192;DHT22;11261;52.456;10.850;2022-12-22T08:46:02;8.70;99.90
22192;DHT22;11261;52.456;10.850;2022-12-22T08:48:31;8.70;99.90
22192;DHT22;11261;52.456;10.850;2022-12-22T08:50:59;8.70;99.90
22192;DHT22;11261;52.456;10.850;2022-12-22T08:53:27;8.70;99.90
22192;DHT22;11261;52.456;10.850;2022-12-22T08:56:15;8.70;99.90
22192;DHT22;11261;52.456;10.850;2022-12-22T08:58:43;8.60;99.90
22192;DHT22;11261;52.456;10.850;2022-12-22T09:01:16;8.70;99.90
22192;DHT22;11261;52.456;10.850;2022-12-22T09:03:47;8.80;99.90
22192;DHT22;11261;52.456;10.850;2022-12-22T09:06:17;8.70;99.90
22192;DHT22;11261;52.456;10.850;2022-12-22T09:08:53;8.90;99.90
22192;DHT22;11261;52.456;10.850;2022-12-22T09:11:22;8.80;99.90
22192;DHT22;11261;52.456;10.850;2022-12-22T09:13:51;8.90;99.90
22192;DHT22;11261;52.456;10.850;2022-12-22T09:16:22;9.00;99.90
22192;DHT22;11261;52.456;10.850;2022-12-22T09:18:50;9.00;99.90
22192;DHT22;11261;52.456;10.850;2022-12-22T09:21:18;9.10;99.90
22192;DHT22;11261;52.456;10.850;2022-12-22T09:23:47;8.90;99.90
22192;DHT22;11261;52.456;10.850;2022-12-22T09:26:17;8.90;99.90
22192;DHT22;11261;52.456;10.850;2022-12-22T09:28:46;8.80;99.90
22192;DHT22;11261;52.456;10.850;2022-12-22T09:31:17;8.80;99.90
22192;DHT22;11261;52.456;10.850;2022-12-22T09:33:47;8.80;99.90
22192;DHT22;11261;52.456;10.850;2022-12-22T09:36:17;8.80;99.90
22192;DHT22;11261;52.456;10.850;2022-12-22T09:38:47;8.80;99.90
22192;DHT22;11261;52.456;10.850;2022-12-22T09:41:17;8.80;99.90
22192;DHT22;11261;52.456;10.850;2022-12-22T09:43:47;8.90;99.90
22192;DHT22;11261;52.456;10.850;2022-12-22T09:46:18;8.90;99.90
22192;DHT22;11261;52.456;10.850;2022-12-22T09:48:50;9.00;99.90
22192;DHT22;11261;52.456;10.850;2022-12-22T09:51:19;9.00;99.90
22192;DHT22;11261;52.456;10.850;2022-12-22T09:53:56;9.00;99.90
22192;DHT22;11261;52.456;10.850;2022-12-22T09:56:25;9.00;99.90
22192;DHT22;11261;52.456;10.850;2022-12-22T09:58:55;8.90;99.90
22192;DHT22;11261;52.456;10.850;2022-12-22T10:01:35;8.90;99.90
22192;DHT22;11261;52.456;10.850;2022-12-22T10:04:13;8.90;99.90
22192;DHT22;11261;52.456;10.850;2022-12-22T10:06:49;9.00;99.90
22192;DHT22;11261;52.456;10.850;2022-12-22T10:09:20;8.90;99.90
22192;DHT22;11261;52.456;10.850;2022-12-22T10:12:14;8.90;99.90
22192;DHT22;11261;52.456;10.850;2022-12-22T10:14:44;9.00;99.90
22192;DHT22;11261;52.456;10.850;2022-12-22T10:17:21;9.00;99.90
22192;DHT22;11261;52.456;10.850;2022-12-22T10:19:53;9.00;99.90
22192;DHT22;11261;52.456;10.850;2022-12-22T10:22:26;9.00;99.90
22192;DHT22;11261;52.456;10.850;2022-12-22T10:24:56;9.00;99.90
22192;DHT22;11261;52.456;10.850;2022-12-22T10:27:26;9.00;99.90
22192;DHT22;11261;52.456;10.850;2022-12-22T10:30:18;9.00;99.90
22192;DHT22;11261;52.456;10.850;2022-12-22T10:33:01;9.10;99.90
22192;DHT22;11261;52.456;10.850;2022-12-22T10:35:49;9.00;99.90
22192;DHT22;11261;52.456;10.850;2022-12-22T10:38:22;9.00;99.90
22192;DHT22;11261;52.456;10.850;2022-12-22T10:40:53;9.00;99.90
22192;DHT22;11261;52.456;10.850;2022-12-22T10:43:30;9.10;99.90
22192;DHT22;11261;52.456;10.850;2022-12-22T10:46:00;9.10;99.90
22192;DHT22;11261;52.456;10.850;2022-12-22T10:48:31;9.10;99.90
22192;DHT22;11261;52.456;10.850;2022-12-22T10:51:03;9.10;99.90
22192;DHT22;11261;52.456;10.850;2022-12-22T10:53:42;9.10;99.90
22192;DHT22;11261;52.456;10.850;2022-12-22T10:56:21;9.10;99.90
22192;DHT22;11261;52.456;10.850;2022-12-22T10:58:50;9.20;99.90
22192;DHT22;11261;52.456;10.850;2022-12-22T11:01:23;9.20;99.90
22192;DHT22;11261;52.456;10.850;2022-12-22T11:03:53;9.20;99.90
22192;DHT22;11261;52.456;10.850;2022-12-22T11:06:22;9.20;99.90
22192;DHT22;11261;52.456;10.850;2022-12-22T11:08:51;9.20;99.90
22192;DHT22;11261;52.456;10.850;2022-12-22T11:11:36;9.30;99.90
22192;DHT22;11261;52.456;10.850;2022-12-22T11:16:44;9.40;99.90
22192;DHT22;11261;52.456;10.850;2022-12-22T11:22:19;9.40;99.90
22192;DHT22;11261;52.456;10.850;2022-12-22T11:28:00;9.50;99.90
22192;DHT22;11261;52.456;10.850;2022-12-22T11:30:35;9.50;99.90
22192;DHT22;11261;52.456;10.850;2022-12-22T11:33:20;9.50;99.90
22192;DHT22;11261;52.456;10.850;2022-12-22T11:35:56;9.50;99.90
22192;DHT22;11261;52.456;10.850;2022-12-22T11:38:38;9.40;99.90
22192;DHT22;11261;52.456;10.850;2022-12-22T11:41:26;9.40;99.90
22192;DHT22;11261;52.456;10.850;2022-12-22T11:44:09;9.30;99.90
22192;DHT22;11261;52.456;10.850;2022-12-22T11:46:43;9.30;99.90
22192;DHT22;11261;52.456;10.850;2022-12-22T11:49:30;9.40;99.90
22192;DHT22;11261;52.456;10.850;2022-12-22T11:52:11;9.40;99.90
22192;DHT22;11261;52.456;10.850;2022-12-22T11:55:03;9.40;99.90
22192;DHT22;11261;52.456;10.850;2022-12-22T11:57:40;9.50;99.90
22192;DHT22;11261;52.456;10.850;2022-12-22T12:00:12;9.60;99.90
22192;DHT22;11261;52.456;10.850;2022-12-22T12:03:22;9.50;99.90
22192;DHT22;11261;52.456;10.850;2022-12-22T12:09:11;9.40;99.90
22192;DHT22;11261;52.456;10.850;2022-12-22T12:11:52;9.50;99.90
22192;DHT22;11261;52.456;10.850;2022-12-22T12:14:30;9.60;99.90
22192;DHT22;11261;52.456;10.850;2022-12-22T12:17:02;9.40;99.90
22192;DHT22;11261;52.456;10.850;2022-12-22T12:20:02;9.40;99.90
22192;DHT22;11261;52.456;10.850;2022-12-22T12:22:48;9.50;99.90
22192;DHT22;11261;52.456;10.850;2022-12-22T12:25:25;9.40;99.90
22192;DHT22;11261;52.456;10.850;2022-12-22T12:28:08;9.40;99.90
22192;DHT22;11261;52.456;10.850;2022-12-22T12:30:44;9.50;99.90
22192;DHT22;11261;52.456;10.850;2022-12-22T12:33:20;9.40;99.90
22192;DHT22;11261;52.456;10.850;2022-12-22T12:35:54;9.50;99.90
22192;DHT22;11261;52.456;10.850;2022-12-22T12:38:30;9.40;99.90
22192;DHT22;11261;52.456;10.850;2022-12-22T12:41:25;9.50;99.90
22192;DHT22;11261;52.456;10.850;2022-12-22T12:43:59;9.60;99.90
22192;DHT22;11261;52.456;10.850;2022-12-22T12:49:59;9.50;99.90
22192;DHT22;11261;52.456;10.850;2022-12-22T12:53:02;9.60;99.90
22192;DHT22;11261;52.456;10.850;2022-12-22T12:55:32;9.60;99.90
22192;DHT22;11261;52.456;10.850;2022-12-22T12:58:02;9.60;99.90
22192;DHT22;11261;52.456;10.850;2022-12-22T13:00:43;9.50;99.90
22192;DHT22;11261;52.456;10.850;2022-12-22T13:03:36;9.50;99.90
22192;DHT22;11261;52.456;10.850;2022-12-22T13:06:47;9.50;99.90
22192;DHT22;11261;52.456;10.850;2022-12-22T13:09:18;9.50;99.90
22192;DHT22;11261;52.456;10.850;2022-12-22T13:12:36;9.50;99.90
22192;DHT22;11261;52.456;10.850;2022-12-22T13:15:27;9.60;99.90
22192;DHT22;11261;52.456;10.850;2022-12-22T13:17:57;9.60;99.90
22192;DHT22;11261;52.456;10.850;2022-12-22T13:20:29;9.60;99.90
22192;DHT22;11261;52.456;10.850;2022-12-22T13:23:00;9.60;99.90
22192;DHT22;11261;52.456;10.850;2022-12-22T13:25:39;9.60;99.90
22192;DHT22;11261;52.456;10.850;2022-12-22T13:28:14;9.60;99.90
22192;DHT22;11261;52.456;10.850;2022-12-22T13:30:46;9.60;99.90
22192;DHT22;11261;52.456;10.850;2022-12-22T13:33:18;9.60;99.90
22192;DHT22;11261;52.456;10.850;2022-12-22T13:35:49;9.60;99.90
22192;DHT22;11261;52.456;10.850;2022-12-22T13:38:29;9.60;99.90
22192;DHT22;11261;52.456;10.850;2022-12-22T13:40:59;9.50;99.90
22192;DHT22;11261;52.456;10.850;2022-12-22T13:43:30;9.50;99.90
22192;DHT22;11261;52.456;10.850;2022-12-22T13:46:00;9.50;99.90
22192;DHT22;11261;52.456;10.850;2022-12-22T13:48:37;9.50;99.90
22192;DHT22;11261;52.456;10.850;2022-12-22T13:51:17;9.50;99.90
22192;DHT22;11261;52.456;10.850;2022-12-22T13:53:50;9.50;99.90
22192;DHT22;11261;52.456;10.850;2022-12-22T13:56:40;9.40;99.90
22192;DHT22;11261;52.456;10.850;2022-12-22T13:59:20;9.50;99.90
22192;DHT22;11261;52.456;10.850;2022-12-22T14:01:56;9.40;99.90
22192;DHT22;11261;52.456;10.850;2022-12-22T14:04:28;9.50;99.90
22192;DHT22;11261;52.456;10.850;2022-12-22T14:07:09;9.40;99.90
22192;DHT22;11261;52.456;10.850;2022-12-22T14:09:42;9.40;99.90
22192;DHT22;11261;52.456;10.850;2022-12-22T14:12:13;9.40;99.90
22192;DHT22;11261;52.456;10.850;2022-12-22T14:14:44;9.40;99.90
22192;DHT22;11261;52.456;10.850;2022-12-22T14:17:23;9.40;99.90
22192;DHT22;11261;52.456;10.850;2022-12-22T14:19:56;9.30;99.90
22192;DHT22;11261;52.456;10.850;2022-12-22T14:22:26;9.30;99.90
22192;DHT22;11261;52.456;10.850;2022-12-22T14:24:58;9.30;99.90
22192;DHT22;11261;52.456;10.850;2022-12-22T14:27:32;9.30;99.90
22192;DHT22;11261;52.456;10.850;2022-12-22T14:30:04;9.30;99.90
22192;DHT22;11261;52.456;10.850;2022-12-22T14:32:37;9.20;99.90
22192;DHT22;11261;52.456;10.850;2022-12-22T14:35:25;9.20;99.90
22192;DHT22;11261;52.456;10.850;2022-12-22T14:38:13;9.10;99.90
22192;DHT22;11261;52.456;10.850;2022-12-22T14:40:43;9.10;99.90
22192;DHT22;11261;52.456;10.850;2022-12-22T14:43:26;9.20;99.90
22192;DHT22;11261;52.456;10.850;2022-12-22T14:46:02;9.00;99.90
22192;DHT22;11261;52.456;10.850;2022-12-22T14:48:35;9.00;99.90
22192;DHT22;11261;52.456;10.850;2022-12-22T14:51:06;9.00;99.90
22192;DHT22;11261;52.456;10.850;2022-12-22T14:53:43;8.90;99.90
22192;DHT22;11261;52.456;10.850;2022-12-22T14:56:14;8.90;99.90
22192;DHT22;11261;52.456;10.850;2022-12-22T14:58:44;8.90;99.90
22192;DHT22;11261;52.456;10.850;2022-12-22T15:01:19;8.80;99.90
22192;DHT22;11261;52.456;10.850;2022-12-22T15:04:00;8.70;99.90
22192;DHT22;11261;52.456;10.850;2022-12-22T15:06:37;8.70;99.90
22192;DHT22;11261;52.456;10.850;2022-12-22T15:09:23;8.50;99.90
22192;DHT22;11261;52.456;10.850;2022-12-22T15:12:13;8.50;99.90
22192;DHT22;11261;52.456;10.850;2022-12-22T15:14:42;8.50;99.90
22192;DHT22;11261;52.456;10.850;2022-12-22T15:17:21;8.40;99.90
22192;DHT22;11261;52.456;10.850;2022-12-22T15:19:54;8.40;99.90
22192;DHT22;11261;52.456;10.850;2022-12-22T15:22:24;8.50;99.90
22192;DHT22;11261;52.456;10.850;2022-12-22T15:24:53;8.30;99.90
22192;DHT22;11261;52.456;10.850;2022-12-22T15:27:21;8.30;99.90
22192;DHT22;11261;52.456;10.850;2022-12-22T15:29:49;8.30;99.90
22192;DHT22;11261;52.456;10.850;2022-12-22T15:32:18;8.10;99.90
22192;DHT22;11261;52.456;10.850;2022-12-22T15:34:46;8.20;99.90
22192;DHT22;11261;52.456;10.850;2022-12-22T15:37:14;8.10;99.90
22192;DHT22;11261;52.456;10.850;2022-12-22T15:39:43;8.20;99.90
22192;DHT22;11261;52.456;10.850;2022-12-22T15:42:12;8.30;99.90
22192;DHT22;11261;52.456;10.850;2022-12-22T15:44:40;8.10;99.90
22192;DHT22;11261;52.456;10.850;2022-12-22T15:47:09;8.00;99.90
22192;DHT22;11261;52.456;10.850;2022-12-22T15:49:39;7.90;99.90
22192;DHT22;11261;52.456;10.850;2022-12-22T15:52:10;7.80;99.90
22192;DHT22;11261;52.456;10.850;2022-12-22T15:54:40;7.80;99.90
22192;DHT22;11261;52.456;10.850;2022-12-22T15:57:12;7.80;99.90
22192;DHT22;11261;52.456;10.850;2022-12-22T15:59:40;7.90;99.90
22192;DHT22;11261;52.456;10.850;2022-12-22T16:02:10;7.80;99.90
22192;DHT22;11261;52.456;10.850;2022-12-22T16:04:39;7.70;99.90
22192;DHT22;11261;52.456;10.850;2022-12-22T16:07:09;7.70;99.90
22192;DHT22;11261;52.456;10.850;2022-12-22T16:09:40;7.60;99.90
22192;DHT22;11261;52.456;10.850;2022-12-22T16:12:13;7.70;99.90
22192;DHT22;11261;52.456;10.850;2022-12-22T16:14:43;7.70;99.90
22192;DHT22;11261;52.456;10.850;2022-12-22T16:17:18;7.70;99.90
22192;DHT22;11261;52.456;10.850;2022-12-22T16:19:46;7.60;99.90
22192;DHT22;11261;52.456;10.850;2022-12-22T16:22:17;7.60;99.90
22192;DHT22;11261;52.456;10.850;2022-12-22T16:24:47;7.60;99.90
22192;DHT22;11261;52.456;10.850;2022-12-22T16:27:18;7.50;99.90
22192;DHT22;11261;52.456;10.850;2022-12-22T16:29:50;7.50;99.90
22192;DHT22;11261;52.456;10.850;2022-12-22T16:32:23;7.50;99.90
22192;DHT22;11261;52.456;10.850;2022-12-22T16:34:52;7.60;99.90
22192;DHT22;11261;52.456;10.850;2022-12-22T16:37:20;7.40;99.90
22192;DHT22;11261;52.456;10.850;2022-12-22T16:39:48;7.40;99.90
22192;DHT22;11261;52.456;10.850;2022-12-22T16:42:18;7.40;99.90
22192;DHT22;11261;52.456;10.850;2022-12-22T16:45:09;7.50;99.90
22192;DHT22;11261;52.456;10.850;2022-12-22T16:47:41;7.50;99.90